sensor_id;sensor_type;location;lat;lon;timestamp;pressure;altitude;pressure_sealevel;temperature;humidity
53262;BME280;39658;51.090;-1.786;2023-04-19T00:00:57;101679.25;;;4.04;100.00
53262;BME280;39658;51.090;-1.786;2023-04-19T00:03:23;101677.63;;;4.00;100.00
53262;BME280;39658;51.090;-1.786;2023-04-19T00:05:50;101677.69;;;3.97;100.00
53262;BME280;39658;51.090;-1.786;2023-04-19T00:08:18;101678.66;;;3.92;100.00
53262;BME280;39658;51.090;-1.786;2023-04-19T00:10:47;101679.59;;;3.88;100.00
53262;BME280;39658;51.090;-1.786;2023-04-19T00:13:13;101671.06;;;3.82;100.00
53262;BME280;39658;51.090;-1.786;2023-04-19T00:15:40;101671.88;;;3.84;100.00
53262;BME280;39658;51.090;-1.786;2023-04-19T00:18:07;101671.91;;;3.82;100.00
53262;BME280;39658;51.090;-1.786;2023-04-19T00:20:34;101659.94;;;3.75;100.00
53262;BME280;39658;51.090;-1.786;2023-04-19T00:23:01;101651.41;;;3.67;100.00
53262;BME280;39658;51.090;-1.786;2023-04-19T00:25:28;101648.91;;;3.62;100.00
53262;BME280;39658;51.090;-1.786;2023-04-19T00:27:57;101644.53;;;3.63;100.00
53262;BME280;39658;51.090;-1.786;2023-04-19T00:30:24;101642.72;;;3.66;100.00
53262;BME280;39658;51.090;-1.786;2023-04-19T00:32:52;101643.59;;;3.67;100.00
53262;BME280;39658;51.090;-1.786;2023-04-19T00:35:19;101635.78;;;3.67;100.00
53262;BME280;39658;51.090;-1.786;2023-04-19T00:37:46;101633.88;;;3.73;100.00
53262;BME280;39658;51.090;-1.786;2023-04-19T00:40:12;101625.94;;;3.78;100.00
53262;BME280;39658;51.090;-1.786;2023-04-19T00:42:39;101622.47;;;3.77;100.00
53262;BME280;39658;51.090;-1.786;2023-04-19T00:45:09;101625.97;;;3.76;100.00
53262;BME280;39658;51.090;-1.786;2023-04-19T00:47:36;101619.91;;;3.76;100.00
53262;BME280;39658;51.090;-1.786;2023-04-19T00:50:04;101607.72;;;3.76;100.00
53262;BME280;39658;51.090;-1.786;2023-04-19T00:52:32;101616.31;;;3.80;100.00
53262;BME280;39658;51.090;-1.786;2023-04-19T00:54:59;101599.84;;;3.78;100.00
53262;BME280;39658;51.090;-1.786;2023-04-19T00:57:27;101597.19;;;3.81;100.00
53262;BME280;39658;51.090;-1.786;2023-04-19T00:59:55;101598.84;;;3.84;100.00
53262;BME280;39658;51.090;-1.786;2023-04-19T01:02:24;101584.09;;;3.83;100.00
53262;BME280;39658;51.090;-1.786;2023-04-19T01:04:52;101581.50;;;3.83;100.00
53262;BME280;39658;51.090;-1.786;2023-04-19T01:07:20;101574.44;;;3.86;100.00
53262;BME280;39658;51.090;-1.786;2023-04-19T01:09:46;101566.47;;;3.92;100.00
53262;BME280;39658;51.090;-1.786;2023-04-19T01:12:13;101548.09;;;3.97;100.00
53262;BME280;39658;51.090;-1.786;2023-04-19T01:14:40;101504.53;;;3.99;100.00
53262;BME280;39658;51.090;-1.786;2023-04-19T01:17:07;100136.66;;;3.99;100.00
53262;BME280;39658;51.090;-1.786;2023-04-19T01:19:36;100154.06;;;3.98;100.00
53262;BME280;39658;51.090;-1.786;2023-04-19T01:22:03;100159.28;;;3.98;100.00
53262;BME280;39658;51.090;-1.786;2023-04-19T01:24:32;100155.94;;;4.13;100.00
53262;BME280;39658;51.090;-1.786;2023-04-19T01:26:59;100153.66;;;4.25;100.00
53262;BME280;39658;51.090;-1.786;2023-04-19T01:29:26;100138.88;;;4.43;100.00
53262;BME280;39658;51.090;-1.786;2023-04-19T01:31:53;100118.66;;;4.64;100.00
53262;BME280;39658;51.090;-1.786;2023-04-19T01:34:20;100115.34;;;4.78;100.00
53262;BME280;39658;51.090;-1.786;2023-04-19T01:36:48;100105.09;;;4.91;100.00
53262;BME280;39658;51.090;-1.786;2023-04-19T01:39:15;100102.38;;;5.10;100.00
53262;BME280;39658;51.090;-1.786;2023-04-19T01:41:43;100091.00;;;5.27;100.00
53262;BME280;39658;51.090;-1.786;2023-04-19T01:44:10;100104.75;;;5.30;100.00
53262;BME280;39658;51.090;-1.786;2023-04-19T01:46:37;100090.94;;;5.44;100.00
53262;BME280;39658;51.090;-1.786;2023-04-19T01:49:07;100082.50;;;5.55;100.00
53262;BME280;39658;51.090;-1.786;2023-04-19T01:51:34;100086.44;;;5.62;100.00
53262;BME280;39658;51.090;-1.786;2023-04-19T01:54:00;100082.47;;;5.71;100.00
53262;BME280;39658;51.090;-1.786;2023-04-19T01:56:27;100081.69;;;5.85;100.00
53262;BME280;39658;51.090;-1.786;2023-04-19T01:58:55;100082.63;;;5.84;100.00
53262;BME280;39658;51.090;-1.786;2023-04-19T02:01:22;100082.00;;;5.94;100.00
53262;BME280;39658;51.090;-1.786;2023-04-19T02:03:49;100068.09;;;6.10;100.00
53262;BME280;39658;51.090;-1.786;2023-04-19T02:06:16;100065.94;;;6.17;100.00
53262;BME280;39658;51.090;-1.786;2023-04-19T02:08:42;100069.63;;;6.28;100.00
53262;BME280;39658;51.090;-1.786;2023-04-19T02:11:11;100077.22;;;6.33;100.00
53262;BME280;39658;51.090;-1.786;2023-04-19T02:13:39;100076.38;;;6.33;100.00
53262;BME280;39658;51.090;-1.786;2023-04-19T02:16:08;100075.25;;;6.37;100.00
53262;BME280;39658;51.090;-1.786;2023-04-19T02:18:35;100082.53;;;6.32;100.00
53262;BME280;39658;51.090;-1.786;2023-04-19T02:21:04;100079.84;;;6.47;100.00
53262;BME280;39658;51.090;-1.786;2023-04-19T02:23:31;100081.72;;;6.45;100.00
53262;BME280;39658;51.090;-1.786;2023-04-19T02:25:58;100075.03;;;6.56;100.00
53262;BME280;39658;51.090;-1.786;2023-04-19T02:28:25;100084.97;;;6.65;100.00
53262;BME280;39658;51.090;-1.786;2023-04-19T02:30:52;100085.06;;;6.63;100.00
53262;BME280;39658;51.090;-1.786;2023-04-19T02:33:21;100084.19;;;6.77;100.00
53262;BME280;39658;51.090;-1.786;2023-04-19T02:35:48;100076.81;;;6.84;100.00
53262;BME280;39658;51.090;-1.786;2023-04-19T02:38:15;100084.13;;;6.93;100.00
53262;BME280;39658;51.090;-1.786;2023-04-19T02:40:42;100082.06;;;6.98;100.00
53262;BME280;39658;51.090;-1.786;2023-04-19T02:43:09;100088.81;;;7.03;100.00
53262;BME280;39658;51.090;-1.786;2023-04-19T02:45:35;100092.53;;;7.13;100.00
53262;BME280;39658;51.090;-1.786;2023-04-19T02:48:02;100097.03;;;7.11;100.00
53262;BME280;39658;51.090;-1.786;2023-04-19T02:50:31;100087.97;;;7.16;100.00
53262;BME280;39658;51.090;-1.786;2023-04-19T02:52:58;100101.34;;;7.12;100.00
53262;BME280;39658;51.090;-1.786;2023-04-19T02:55:25;100103.19;;;7.10;100.00
53262;BME280;39658;51.090;-1.786;2023-04-19T02:57:52;100109.00;;;7.00;100.00
53262;BME280;39658;51.090;-1.786;2023-04-19T03:00:19;100114.81;;;6.91;100.00
53262;BME280;39658;51.090;-1.786;2023-04-19T03:02:45;100113.88;;;6.78;100.00
53262;BME280;39658;51.090;-1.786;2023-04-19T03:05:12;100127.53;;;6.69;100.00
53262;BME280;39658;51.090;-1.786;2023-04-19T03:07:40;100128.53;;;6.66;100.00
53262;BME280;39658;51.090;-1.786;2023-04-19T03:10:08;100133.03;;;6.64;100.00
53262;BME280;39658;51.090;-1.786;2023-04-19T03:12:35;100138.44;;;6.61;100.00
53262;BME280;39658;51.090;-1.786;2023-04-19T03:15:02;100136.00;;;6.58;100.00
53262;BME280;39658;51.090;-1.786;2023-04-19T03:17:28;100138.63;;;6.58;100.00
53262;BME280;39658;51.090;-1.786;2023-04-19T03:19:55;100136.63;;;6.47;100.00
53262;BME280;39658;51.090;-1.786;2023-04-19T03:22:22;100149.34;;;6.39;100.00
53262;BME280;39658;51.090;-1.786;2023-04-19T03:24:50;100149.88;;;6.29;100.00
53262;BME280;39658;51.090;-1.786;2023-04-19T03:27:17;100148.53;;;6.22;100.00
53262;BME280;39658;51.090;-1.786;2023-04-19T03:29:44;100139.75;;;6.23;100.00
53262;BME280;39658;51.090;-1.786;2023-04-19T03:32:10;100140.41;;;6.27;100.00
53262;BME280;39658;51.090;-1.786;2023-04-19T03:34:37;100145.13;;;6.36;100.00
53262;BME280;39658;51.090;-1.786;2023-04-19T03:37:04;100134.28;;;6.42;100.00
53262;BME280;39658;51.090;-1.786;2023-04-19T03:39:31;100136.81;;;6.44;100.00
53262;BME280;39658;51.090;-1.786;2023-04-19T03:41:59;100134.84;;;6.47;100.00
53262;BME280;39658;51.090;-1.786;2023-04-19T03:44:27;100124.47;;;6.46;100.00
53262;BME280;39658;51.090;-1.786;2023-04-19T03:46:53;100129.63;;;6.47;100.00
53262;BME280;39658;51.090;-1.786;2023-04-19T03:49:20;100124.81;;;6.40;100.00
53262;BME280;39658;51.090;-1.786;2023-04-19T03:51:47;100129.31;;;6.38;100.00
53262;BME280;39658;51.090;-1.786;2023-04-19T03:54:14;100140.78;;;6.35;100.00
53262;BME280;39658;51.090;-1.786;2023-04-19T03:56:40;100146.47;;;6.43;100.00
53262;BME280;39658;51.090;-1.786;2023-04-19T03:59:09;100134.19;;;6.44;100.00
53262;BME280;39658;51.090;-1.786;2023-04-19T04:01:36;100143.25;;;6.38;100.00
53262;BME280;39658;51.090;-1.786;2023-04-19T04:04:06;100140.72;;;6.37;100.00
53262;BME280;39658;51.090;-1.786;2023-04-19T04:06:33;100138.59;;;6.43;100.00
53262;BME280;39658;51.090;-1.786;2023-04-19T04:08:59;100138.41;;;6.46;100.00
53262;BME280;39658;51.090;-1.786;2023-04-19T04:11:26;100141.59;;;6.52;100.00
53262;BME280;39658;51.090;-1.786;2023-04-19T04:13:54;100137.66;;;6.44;100.00
53262;BME280;39658;51.090;-1.786;2023-04-19T04:16:22;100140.63;;;6.38;100.00
53262;BME280;39658;51.090;-1.786;2023-04-19T04:18:50;100147.44;;;6.26;100.00
53262;BME280;39658;51.090;-1.786;2023-04-19T04:21:17;100147.78;;;6.20;100.00
53262;BME280;39658;51.090;-1.786;2023-04-19T04:23:44;100143.63;;;6.16;100.00
53262;BME280;39658;51.090;-1.786;2023-04-19T04:26:11;100146.84;;;6.05;100.00
53262;BME280;39658;51.090;-1.786;2023-04-19T04:28:38;100153.88;;;6.05;100.00
53262;BME280;39658;51.090;-1.786;2023-04-19T04:31:05;100154.97;;;6.01;100.00
53262;BME280;39658;51.090;-1.786;2023-04-19T04:33:33;100153.47;;;5.97;100.00
53262;BME280;39658;51.090;-1.786;2023-04-19T04:36:00;100153.88;;;5.89;100.00
53262;BME280;39658;51.090;-1.786;2023-04-19T04:38:27;100153.53;;;5.95;100.00
53262;BME280;39658;51.090;-1.786;2023-04-19T04:40:54;100151.75;;;5.96;100.00
53262;BME280;39658;51.090;-1.786;2023-04-19T04:43:23;100148.06;;;6.00;100.00
53262;BME280;39658;51.090;-1.786;2023-04-19T04:45:50;100151.50;;;6.00;100.00
53262;BME280;39658;51.090;-1.786;2023-04-19T04:48:19;100140.78;;;6.05;100.00
53262;BME280;39658;51.090;-1.786;2023-04-19T04:50:48;100151.00;;;6.09;100.00
53262;BME280;39658;51.090;-1.786;2023-04-19T04:53:14;100146.03;;;6.05;100.00
53262;BME280;39658;51.090;-1.786;2023-04-19T04:55:41;100151.34;;;6.03;100.00
53262;BME280;39658;51.090;-1.786;2023-04-19T04:58:08;100163.22;;;6.09;100.00
53262;BME280;39658;51.090;-1.786;2023-04-19T05:00:35;100163.22;;;6.09;100.00
53262;BME280;39658;51.090;-1.786;2023-04-19T05:03:01;100158.16;;;6.06;100.00
53262;BME280;39658;51.090;-1.786;2023-04-19T05:05:28;100159.28;;;6.02;100.00
53262;BME280;39658;51.090;-1.786;2023-04-19T05:07:57;100159.47;;;5.99;100.00
53262;BME280;39658;51.090;-1.786;2023-04-19T05:10:23;100155.19;;;5.96;100.00
53262;BME280;39658;51.090;-1.786;2023-04-19T05:12:50;100158.53;;;6.00;100.00
53262;BME280;39658;51.090;-1.786;2023-04-19T05:15:17;100170.00;;;5.97;100.00
53262;BME280;39658;51.090;-1.786;2023-04-19T05:17:44;100168.13;;;5.99;100.00
53262;BME280;39658;51.090;-1.786;2023-04-19T05:20:11;100167.97;;;6.02;100.00
53262;BME280;39658;51.090;-1.786;2023-04-19T05:22:38;100168.47;;;6.09;100.00
53262;BME280;39658;51.090;-1.786;2023-04-19T05:25:08;100161.28;;;6.13;100.00
53262;BME280;39658;51.090;-1.786;2023-04-19T05:27:35;100161.03;;;6.17;100.00
53262;BME280;39658;51.090;-1.786;2023-04-19T05:30:02;100160.59;;;6.25;100.00
53262;BME280;39658;51.090;-1.786;2023-04-19T05:32:29;100153.59;;;6.25;100.00
53262;BME280;39658;51.090;-1.786;2023-04-19T05:34:56;100152.97;;;6.36;100.00
53262;BME280;39658;51.090;-1.786;2023-04-19T05:37:23;100147.47;;;6.41;100.00
53262;BME280;39658;51.090;-1.786;2023-04-19T05:39:50;100147.13;;;6.61;100.00
53262;BME280;39658;51.090;-1.786;2023-04-19T05:42:18;100140.25;;;6.75;100.00
53262;BME280;39658;51.090;-1.786;2023-04-19T05:44:45;100139.91;;;6.81;100.00
53262;BME280;39658;51.090;-1.786;2023-04-19T05:47:11;100131.75;;;7.00;100.00
53262;BME280;39658;51.090;-1.786;2023-04-19T05:49:38;100130.38;;;7.09;100.00
53262;BME280;39658;51.090;-1.786;2023-04-19T05:52:05;100138.69;;;7.15;100.00
53262;BME280;39658;51.090;-1.786;2023-04-19T05:54:32;100133.06;;;7.22;100.00
53262;BME280;39658;51.090;-1.786;2023-04-19T05:57:00;100134.59;;;7.26;100.00
53262;BME280;39658;51.090;-1.786;2023-04-19T05:59:28;100147.31;;;7.32;100.00
53262;BME280;39658;51.090;-1.786;2023-04-19T06:01:55;100141.50;;;7.41;100.00
53262;BME280;39658;51.090;-1.786;2023-04-19T06:04:22;100147.59;;;7.42;100.00
53262;BME280;39658;51.090;-1.786;2023-04-19T06:06:49;100154.13;;;7.49;100.00
53262;BME280;39658;51.090;-1.786;2023-04-19T06:09:16;100158.97;;;7.55;100.00
53262;BME280;39658;51.090;-1.786;2023-04-19T06:11:43;100158.25;;;7.53;100.00
53262;BME280;39658;51.090;-1.786;2023-04-19T06:14:10;100155.53;;;7.54;100.00
53262;BME280;39658;51.090;-1.786;2023-04-19T06:16:39;100163.19;;;7.58;100.00
53262;BME280;39658;51.090;-1.786;2023-04-19T06:19:06;100156.84;;;7.62;100.00
53262;BME280;39658;51.090;-1.786;2023-04-19T06:21:33;100151.69;;;7.60;100.00
53262;BME280;39658;51.090;-1.786;2023-04-19T06:24:00;100144.66;;;7.61;100.00
53262;BME280;39658;51.090;-1.786;2023-04-19T06:26:27;100148.88;;;7.63;100.00
53262;BME280;39658;51.090;-1.786;2023-04-19T06:28:54;100149.31;;;7.70;100.00
53262;BME280;39658;51.090;-1.786;2023-04-19T06:31:21;100152.75;;;7.70;100.00
53262;BME280;39658;51.090;-1.786;2023-04-19T06:33:49;100156.16;;;7.72;100.00
53262;BME280;39658;51.090;-1.786;2023-04-19T06:36:16;100153.53;;;7.72;100.00
53262;BME280;39658;51.090;-1.786;2023-04-19T06:38:43;100150.72;;;7.76;100.00
53262;BME280;39658;51.090;-1.786;2023-04-19T06:41:10;100148.00;;;7.77;100.00
53262;BME280;39658;51.090;-1.786;2023-04-19T06:43:37;100156.69;;;7.78;100.00
53262;BME280;39658;51.090;-1.786;2023-04-19T06:46:05;100163.66;;;7.79;100.00
53262;BME280;39658;51.090;-1.786;2023-04-19T06:48:33;100168.03;;;7.78;100.00
53262;BME280;39658;51.090;-1.786;2023-04-19T06:51:01;100154.72;;;7.81;100.00
53262;BME280;39658;51.090;-1.786;2023-04-19T06:53:28;100167.94;;;7.80;100.00
53262;BME280;39658;51.090;-1.786;2023-04-19T06:55:57;100169.25;;;7.87;100.00
53262;BME280;39658;51.090;-1.786;2023-04-19T06:58:26;100164.19;;;7.84;100.00
53262;BME280;39658;51.090;-1.786;2023-04-19T07:00:53;100173.56;;;7.88;100.00
53262;BME280;39658;51.090;-1.786;2023-04-19T07:03:20;100168.41;;;7.86;100.00
53262;BME280;39658;51.090;-1.786;2023-04-19T07:05:47;100171.78;;;7.88;100.00
53262;BME280;39658;51.090;-1.786;2023-04-19T07:08:15;100171.88;;;7.87;100.00
53262;BME280;39658;51.090;-1.786;2023-04-19T07:10:42;100177.84;;;7.89;100.00
53262;BME280;39658;51.090;-1.786;2023-04-19T07:13:09;100177.22;;;7.85;100.00
53262;BME280;39658;51.090;-1.786;2023-04-19T07:15:36;100182.25;;;7.88;100.00
53262;BME280;39658;51.090;-1.786;2023-04-19T07:18:03;100178.63;;;7.91;100.00
53262;BME280;39658;51.090;-1.786;2023-04-19T07:20:30;100179.16;;;7.96;100.00
53262;BME280;39658;51.090;-1.786;2023-04-19T07:22:57;100181.09;;;8.07;100.00
53262;BME280;39658;51.090;-1.786;2023-04-19T07:25:26;100174.81;;;8.09;100.00
53262;BME280;39658;51.090;-1.786;2023-04-19T07:27:53;100183.88;;;8.18;100.00
53262;BME280;39658;51.090;-1.786;2023-04-19T07:30:21;100184.00;;;8.30;100.00
53262;BME280;39658;51.090;-1.786;2023-04-19T07:32:48;100179.47;;;8.46;100.00
53262;BME280;39658;51.090;-1.786;2023-04-19T07:35:16;100174.84;;;8.50;100.00
53262;BME280;39658;51.090;-1.786;2023-04-19T07:37:43;100166.50;;;8.70;100.00
53262;BME280;39658;51.090;-1.786;2023-04-19T07:40:11;100156.31;;;8.78;100.00
53262;BME280;39658;51.090;-1.786;2023-04-19T07:42:42;100149.50;;;8.89;100.00
53262;BME280;39658;51.090;-1.786;2023-04-19T07:45:09;100146.97;;;9.00;100.00
53262;BME280;39658;51.090;-1.786;2023-04-19T07:47:36;100152.31;;;9.11;100.00
53262;BME280;39658;51.090;-1.786;2023-04-19T07:50:03;100139.56;;;9.18;100.00
53262;BME280;39658;51.090;-1.786;2023-04-19T07:52:32;100134.19;;;9.20;100.00
53262;BME280;39658;51.090;-1.786;2023-04-19T07:54:58;100127.25;;;9.31;100.00
53262;BME280;39658;51.090;-1.786;2023-04-19T07:57:26;100109.22;;;9.38;100.00
53262;BME280;39658;51.090;-1.786;2023-04-19T07:59:54;100102.72;;;9.44;100.00
53262;BME280;39658;51.090;-1.786;2023-04-19T08:02:24;100076.91;;;9.49;100.00
53262;BME280;39658;51.090;-1.786;2023-04-19T08:04:51;100051.13;;;9.54;100.00
53262;BME280;39658;51.090;-1.786;2023-04-19T08:07:18;100025.91;;;9.63;100.00
53262;BME280;39658;51.090;-1.786;2023-04-19T08:09:45;100001.66;;;9.70;100.00
53262;BME280;39658;51.090;-1.786;2023-04-19T08:12:12;99977.50;;;9.77;100.00
53262;BME280;39658;51.090;-1.786;2023-04-19T08:14:38;99953.47;;;9.81;100.00
53262;BME280;39658;51.090;-1.786;2023-04-19T08:17:08;99949.53;;;9.87;100.00
53262;BME280;39658;51.090;-1.786;2023-04-19T08:19:34;100945.47;;;10.06;100.00
53262;BME280;39658;51.090;-1.786;2023-04-19T08:22:01;101367.13;;;10.21;100.00
53262;BME280;39658;51.090;-1.786;2023-04-19T08:24:29;101391.03;;;10.18;100.00
53262;BME280;39658;51.090;-1.786;2023-04-19T08:26:56;101415.56;;;10.18;100.00
53262;BME280;39658;51.090;-1.786;2023-04-19T08:29:23;101420.81;;;10.36;100.00
53262;BME280;39658;51.090;-1.786;2023-04-19T08:31:50;101439.66;;;10.46;100.00
53262;BME280;39658;51.090;-1.786;2023-04-19T08:34:18;101507.44;;;10.59;100.00
53262;BME280;39658;51.090;-1.786;2023-04-19T08:36:45;101512.75;;;10.91;100.00
53262;BME280;39658;51.090;-1.786;2023-04-19T08:39:12;101517.59;;;11.31;100.00
53262;BME280;39658;51.090;-1.786;2023-04-19T08:41:39;101523.47;;;11.98;100.00
53262;BME280;39658;51.090;-1.786;2023-04-19T08:44:06;101532.97;;;13.58;100.00
53262;BME280;39658;51.090;-1.786;2023-04-19T08:46:36;101561.69;;;13.51;100.00
53262;BME280;39658;51.090;-1.786;2023-04-19T08:49:04;101562.72;;;14.03;100.00
53262;BME280;39658;51.090;-1.786;2023-04-19T08:51:33;101566.38;;;15.16;100.00
53262;BME280;39658;51.090;-1.786;2023-04-19T08:54:03;101580.75;;;15.51;100.00
53262;BME280;39658;51.090;-1.786;2023-04-19T08:56:30;101584.38;;;15.74;100.00
53262;BME280;39658;51.090;-1.786;2023-04-19T08:58:57;101586.28;;;16.31;100.00
53262;BME280;39658;51.090;-1.786;2023-04-19T09:01:24;101600.88;;;16.14;100.00
53262;BME280;39658;51.090;-1.786;2023-04-19T09:03:51;101603.50;;;15.79;100.00
53262;BME280;39658;51.090;-1.786;2023-04-19T09:06:17;101601.97;;;16.23;100.00
53262;BME280;39658;51.090;-1.786;2023-04-19T09:08:46;101608.34;;;16.67;100.00
53262;BME280;39658;51.090;-1.786;2023-04-19T09:11:12;101629.19;;;16.74;100.00
53262;BME280;39658;51.090;-1.786;2023-04-19T09:13:39;101638.25;;;15.76;100.00
53262;BME280;39658;51.090;-1.786;2023-04-19T09:16:22;101618.03;;;16.22;100.00
53262;BME280;39658;51.090;-1.786;2023-04-19T09:18:56;101631.28;;;18.56;100.00
53262;BME280;39658;51.090;-1.786;2023-04-19T09:21:27;101639.16;;;17.28;100.00
53262;BME280;39658;51.090;-1.786;2023-04-19T09:23:56;101636.84;;;16.90;100.00
53262;BME280;39658;51.090;-1.786;2023-04-19T09:26:23;101630.00;;;18.81;100.00
53262;BME280;39658;51.090;-1.786;2023-04-19T09:28:57;101631.78;;;19.23;100.00
53262;BME280;39658;51.090;-1.786;2023-04-19T09:31:27;101630.38;;;19.19;100.00
53262;BME280;39658;51.090;-1.786;2023-04-19T09:33:54;101626.97;;;19.17;100.00
53262;BME280;39658;51.090;-1.786;2023-04-19T09:36:28;101627.09;;;17.56;100.00
53262;BME280;39658;51.090;-1.786;2023-04-19T09:38:57;101628.88;;;17.67;100.00
53262;BME280;39658;51.090;-1.786;2023-04-19T09:41:24;101631.53;;;18.74;100.00
53262;BME280;39658;51.090;-1.786;2023-04-19T09:43:51;101635.63;;;18.47;100.00
53262;BME280;39658;51.090;-1.786;2023-04-19T09:46:39;101622.69;;;18.74;100.00
53262;BME280;39658;51.090;-1.786;2023-04-19T09:49:16;101640.16;;;19.49;100.00
53262;BME280;39658;51.090;-1.786;2023-04-19T09:51:45;101624.78;;;19.32;100.00
53262;BME280;39658;51.090;-1.786;2023-04-19T09:54:15;101614.81;;;19.44;100.00
53262;BME280;39658;51.090;-1.786;2023-04-19T09:56:42;101608.50;;;19.64;100.00
53262;BME280;39658;51.090;-1.786;2023-04-19T09:59:09;101618.19;;;19.46;100.00
53262;BME280;39658;51.090;-1.786;2023-04-19T10:01:38;101602.53;;;18.91;100.00
53262;BME280;39658;51.090;-1.786;2023-04-19T10:04:05;101601.66;;;17.96;100.00
53262;BME280;39658;51.090;-1.786;2023-04-19T10:06:34;101621.72;;;17.68;100.00
53262;BME280;39658;51.090;-1.786;2023-04-19T10:09:02;101600.09;;;18.15;100.00
53262;BME280;39658;51.090;-1.786;2023-04-19T10:11:33;101603.22;;;18.41;100.00
53262;BME280;39658;51.090;-1.786;2023-04-19T10:14:06;101596.72;;;18.12;100.00
53262;BME280;39658;51.090;-1.786;2023-04-19T10:16:33;101604.84;;;18.11;100.00
53262;BME280;39658;51.090;-1.786;2023-04-19T10:19:02;101599.97;;;17.95;100.00
53262;BME280;39658;51.090;-1.786;2023-04-19T10:21:30;101588.47;;;18.16;100.00
53262;BME280;39658;51.090;-1.786;2023-04-19T10:23:58;101593.38;;;18.62;100.00
53262;BME280;39658;51.090;-1.786;2023-04-19T10:26:25;101591.72;;;18.40;100.00
53262;BME280;39658;51.090;-1.786;2023-04-19T10:28:54;101582.94;;;18.07;100.00
53262;BME280;39658;51.090;-1.786;2023-04-19T10:31:24;101577.78;;;17.94;100.00
53262;BME280;39658;51.090;-1.786;2023-04-19T10:33:51;101589.34;;;18.68;100.00
53262;BME280;39658;51.090;-1.786;2023-04-19T10:36:19;101590.91;;;18.71;100.00
53262;BME280;39658;51.090;-1.786;2023-04-19T10:38:47;101585.59;;;19.11;100.00
53262;BME280;39658;51.090;-1.786;2023-04-19T10:41:17;101582.59;;;19.65;100.00
53262;BME280;39658;51.090;-1.786;2023-04-19T10:43:46;101581.06;;;19.72;100.00
53262;BME280;39658;51.090;-1.786;2023-04-19T10:46:16;101581.44;;;20.36;100.00
53262;BME280;39658;51.090;-1.786;2023-04-19T10:49:02;101570.78;;;20.06;100.00
53262;BME280;39658;51.090;-1.786;2023-04-19T10:51:32;101587.03;;;20.52;100.00
53262;BME280;39658;51.090;-1.786;2023-04-19T10:54:00;101581.91;;;20.02;100.00
53262;BME280;39658;51.090;-1.786;2023-04-19T10:56:56;101577.41;;;20.02;100.00
53262;BME280;39658;51.090;-1.786;2023-04-19T10:59:24;101576.94;;;19.38;100.00
53262;BME280;39658;51.090;-1.786;2023-04-19T11:01:54;101575.03;;;19.80;100.00
53262;BME280;39658;51.090;-1.786;2023-04-19T11:07:37;101571.53;;;20.93;100.00
53262;BME280;39658;51.090;-1.786;2023-04-19T11:10:06;101576.91;;;18.36;100.00
53262;BME280;39658;51.090;-1.786;2023-04-19T11:12:33;101576.78;;;17.63;100.00
53262;BME280;39658;51.090;-1.786;2023-04-19T11:15:00;101571.16;;;17.45;100.00
53262;BME280;39658;51.090;-1.786;2023-04-19T11:17:29;101565.13;;;19.51;100.00
53262;BME280;39658;51.090;-1.786;2023-04-19T11:19:58;101567.28;;;19.77;100.00
53262;BME280;39658;51.090;-1.786;2023-04-19T11:22:29;101570.41;;;21.42;100.00
53262;BME280;39658;51.090;-1.786;2023-04-19T11:25:04;101564.56;;;19.47;100.00
53262;BME280;39658;51.090;-1.786;2023-04-19T11:27:31;101552.63;;;20.57;100.00
53262;BME280;39658;51.090;-1.786;2023-04-19T11:30:01;101563.69;;;20.35;100.00
53262;BME280;39658;51.090;-1.786;2023-04-19T11:32:31;101559.09;;;19.98;100.00
53262;BME280;39658;51.090;-1.786;2023-04-19T11:35:03;101544.13;;;20.15;100.00
53262;BME280;39658;51.090;-1.786;2023-04-19T11:37:32;101557.72;;;18.73;100.00
53262;BME280;39658;51.090;-1.786;2023-04-19T11:39:59;101544.38;;;18.83;100.00
53262;BME280;39658;51.090;-1.786;2023-04-19T11:42:26;101547.13;;;19.82;100.00
53262;BME280;39658;51.090;-1.786;2023-04-19T11:44:53;101542.94;;;22.46;94.68
53262;BME280;39658;51.090;-1.786;2023-04-19T11:47:22;101538.13;;;23.01;88.30
53262;BME280;39658;51.090;-1.786;2023-04-19T11:49:50;101556.59;;;19.77;100.00
53262;BME280;39658;51.090;-1.786;2023-04-19T11:52:21;101549.09;;;18.29;100.00
53262;BME280;39658;51.090;-1.786;2023-04-19T11:54:49;101543.69;;;19.22;100.00
53262;BME280;39658;51.090;-1.786;2023-04-19T11:57:26;101534.72;;;22.48;92.51
53262;BME280;39658;51.090;-1.786;2023-04-19T12:00:04;101534.47;;;20.89;92.14
53262;BME280;39658;51.090;-1.786;2023-04-19T12:02:36;101544.16;;;19.46;100.00
53262;BME280;39658;51.090;-1.786;2023-04-19T12:05:09;101552.84;;;18.47;100.00
53262;BME280;39658;51.090;-1.786;2023-04-19T12:07:36;101550.84;;;17.21;100.00
53262;BME280;39658;51.090;-1.786;2023-04-19T12:10:10;101559.28;;;16.25;100.00
53262;BME280;39658;51.090;-1.786;2023-04-19T12:12:37;101555.84;;;15.76;100.00
53262;BME280;39658;51.090;-1.786;2023-04-19T12:15:05;101562.53;;;15.57;100.00
53262;BME280;39658;51.090;-1.786;2023-04-19T12:17:32;101562.94;;;15.40;100.00
53262;BME280;39658;51.090;-1.786;2023-04-19T12:19:59;101572.13;;;15.47;100.00
53262;BME280;39658;51.090;-1.786;2023-04-19T12:22:27;101554.28;;;15.49;100.00
53262;BME280;39658;51.090;-1.786;2023-04-19T12:24:54;101547.97;;;15.50;100.00
53262;BME280;39658;51.090;-1.786;2023-04-19T12:27:21;101555.31;;;15.22;100.00
53262;BME280;39658;51.090;-1.786;2023-04-19T12:29:50;101556.00;;;15.37;100.00
53262;BME280;39658;51.090;-1.786;2023-04-19T12:32:16;101550.91;;;16.88;100.00
53262;BME280;39658;51.090;-1.786;2023-04-19T12:34:43;101553.13;;;16.24;100.00
53262;BME280;39658;51.090;-1.786;2023-04-19T12:37:10;101555.28;;;16.19;100.00
53262;BME280;39658;51.090;-1.786;2023-04-19T12:39:38;101563.22;;;16.55;100.00
53262;BME280;39658;51.090;-1.786;2023-04-19T12:42:05;101559.50;;;16.22;100.00
53262;BME280;39658;51.090;-1.786;2023-04-19T12:44:32;101558.31;;;15.79;100.00